createdAt,value
2018-08-03T00:00:24.844Z,734.00
2018-08-03T00:01:24.562Z,729.00
2018-08-03T00:02:26.362Z,729.00
2018-08-03T00:03:27.135Z,729.00
2018-08-03T00:04:27.917Z,732.00
2018-08-03T00:05:28.683Z,729.00
2018-08-03T00:06:29.465Z,729.00
2018-08-03T00:07:30.263Z,729.00
2018-08-03T00:08:31.035Z,729.00
2018-08-03T00:09:32.806Z,733.00
2018-08-03T00:10:32.581Z,730.00
2018-08-03T00:11:33.720Z,729.00
2018-08-03T00:13:24.659Z,732.00
2018-08-03T00:14:25.442Z,732.00
2018-08-03T00:15:26.201Z,730.00
2018-08-03T00:16:26.975Z,732.00
2018-08-03T00:17:27.765Z,732.00
2018-08-03T00:18:28.541Z,733.00
2018-08-03T00:19:29.309Z,734.00
2018-08-03T00:20:30.094Z,734.00
2018-08-03T00:21:30.855Z,733.00
2018-08-03T00:22:31.652Z,734.00
2018-08-03T00:23:32.424Z,735.00
2018-08-03T00:24:33.194Z,733.00
2018-08-03T00:25:33.973Z,733.00
2018-08-03T00:26:34.746Z,732.00
2018-08-03T00:27:36.269Z,733.00
2018-08-03T00:28:36.040Z,734.00
2018-08-03T00:29:36.813Z,735.00
2018-08-03T00:30:37.591Z,733.00
2018-08-03T00:31:38.363Z,734.00
2018-08-03T00:32:39.169Z,736.00
2018-08-03T00:33:39.938Z,739.00
2018-08-03T00:34:40.717Z,737.00
2018-08-03T00:35:41.492Z,736.00
2018-08-03T00:36:42.275Z,736.00
2018-08-03T00:37:43.069Z,736.00
2018-08-03T00:38:43.840Z,736.00
2018-08-03T00:39:44.616Z,736.00
2018-08-03T00:40:45.390Z,736.00
2018-08-03T00:41:46.165Z,734.00
2018-08-03T00:42:46.965Z,735.00
2018-08-03T00:43:47.743Z,734.00
2018-08-03T00:44:48.511Z,733.00
2018-08-03T00:45:49.291Z,736.00
2018-08-03T00:46:50.067Z,736.00
2018-08-03T00:47:50.872Z,735.00
2018-08-03T00:48:51.640Z,736.00
2018-08-03T00:49:52.411Z,735.00
2018-08-03T00:50:53.191Z,736.00
2018-08-03T00:51:53.963Z,736.00
2018-08-03T00:52:54.769Z,737.00
2018-08-03T00:53:55.536Z,736.00
2018-08-03T00:54:56.317Z,736.00
2018-08-03T00:55:57.087Z,737.00
2018-08-03T00:56:57.867Z,737.00
2018-08-03T00:57:58.667Z,737.00
2018-08-03T00:58:59.438Z,736.00
2018-08-03T01:00:00.208Z,737.00
2018-08-03T01:01:00.985Z,738.00
2018-08-03T01:02:01.750Z,737.00
2018-08-03T01:03:02.547Z,736.00
2018-08-03T01:04:03.319Z,737.00
2018-08-03T01:05:04.091Z,737.00
2018-08-03T01:06:04.867Z,736.00
2018-08-03T01:07:05.639Z,735.00
2018-08-03T01:08:06.443Z,736.00
2018-08-03T01:09:07.213Z,736.00
2018-08-03T01:10:07.990Z,737.00
2018-08-03T01:11:08.763Z,736.00
2018-08-03T01:12:09.534Z,735.00
2018-08-03T01:13:10.335Z,735.00
2018-08-03T01:14:11.109Z,734.00
2018-08-03T01:15:11.881Z,736.00
2018-08-03T01:16:12.649Z,734.00
2018-08-03T01:17:13.426Z,733.00
2018-08-03T01:18:14.224Z,733.00
2018-08-03T01:19:14.990Z,735.00
2018-08-03T01:20:15.762Z,736.00
2018-08-03T01:21:16.541Z,737.00
2018-08-03T01:22:17.318Z,736.00
2018-08-03T01:23:18.115Z,736.00
2018-08-03T01:24:18.889Z,738.00
2018-08-03T01:25:19.664Z,736.00
2018-08-03T01:26:20.440Z,735.00
2018-08-03T01:27:21.214Z,735.00
2018-08-03T01:28:22.021Z,735.00
2018-08-03T01:29:22.787Z,736.00
2018-08-03T01:30:23.565Z,734.00
2018-08-03T01:31:24.338Z,734.00
2018-08-03T01:32:25.114Z,735.00
2018-08-03T01:33:25.916Z,736.00
2018-08-03T01:34:26.689Z,735.00
2018-08-03T01:35:27.479Z,734.00
2018-08-03T01:36:28.248Z,734.00
2018-08-03T01:37:29.025Z,734.00
2018-08-03T01:38:29.819Z,735.00
2018-08-03T01:39:30.590Z,735.00
2018-08-03T01:40:31.364Z,736.00
2018-08-03T01:41:32.142Z,735.00
2018-08-03T01:42:32.911Z,736.00
2018-08-03T01:43:33.714Z,735.00
2018-08-03T01:44:34.486Z,735.00
2018-08-03T01:45:35.272Z,735.00
2018-08-03T01:46:36.044Z,736.00
2018-08-03T01:47:36.814Z,737.00
2018-08-03T01:48:37.617Z,735.00
2018-08-03T01:49:38.389Z,735.00
2018-08-03T01:50:39.167Z,735.00
2018-08-03T01:51:39.937Z,736.00
2018-08-03T01:52:40.717Z,735.00
2018-08-03T01:53:41.516Z,736.00
2018-08-03T01:54:42.292Z,736.00
2018-08-03T01:55:43.063Z,737.00
2018-08-03T01:56:43.844Z,738.00
2018-08-03T01:57:44.619Z,736.00
2018-08-03T01:58:45.414Z,738.00
2018-08-03T01:59:46.587Z,737.00
2018-08-03T02:04:49.866Z,736.00
2018-08-03T02:05:50.637Z,738.00
2018-08-03T02:06:50.409Z,736.00
2018-08-03T02:07:52.186Z,736.00
2018-08-03T02:08:52.957Z,736.00
2018-08-03T02:09:53.764Z,738.00
2018-08-03T02:10:54.535Z,738.00
2018-08-03T02:11:55.309Z,736.00
2018-08-03T02:12:56.085Z,736.00
2018-08-03T02:13:56.864Z,735.00
2018-08-03T02:14:57.666Z,735.00
2018-08-03T02:15:58.440Z,735.00
2018-08-03T02:16:59.210Z,735.00
2018-08-03T02:17:59.981Z,736.00
2018-08-03T02:19:00.761Z,736.00
2018-08-03T02:20:01.561Z,738.00
2018-08-03T02:21:02.335Z,736.00
2018-08-03T02:22:03.107Z,735.00
2018-08-03T02:23:03.888Z,736.00
2018-08-03T02:24:04.665Z,735.00
2018-08-03T02:25:05.457Z,735.00
2018-08-03T02:26:06.229Z,736.00
2018-08-03T02:27:07.005Z,735.00
2018-08-03T02:28:07.773Z,736.00
2018-08-03T02:29:08.557Z,738.00
2018-08-03T02:30:09.344Z,736.00
2018-08-03T02:31:10.117Z,736.00
2018-08-03T02:32:10.889Z,736.00
2018-08-03T02:33:11.666Z,736.00
2018-08-03T02:34:12.438Z,738.00
2018-08-03T02:35:13.240Z,736.00
2018-08-03T02:36:14.013Z,738.00
2018-08-03T02:37:14.786Z,737.00
2018-08-03T02:38:15.559Z,737.00
2018-08-03T02:39:16.332Z,737.00
2018-08-03T02:40:17.135Z,737.00
2018-08-03T02:41:17.915Z,736.00
2018-08-03T02:42:18.693Z,736.00
2018-08-03T02:43:19.464Z,737.00
2018-08-03T02:44:20.240Z,736.00
2018-08-03T02:45:21.042Z,736.00
2018-08-03T02:46:21.814Z,736.00
2018-08-03T02:47:22.591Z,738.00
2018-08-03T02:48:23.362Z,736.00
2018-08-03T02:49:24.137Z,737.00
2018-08-03T02:50:24.937Z,739.00
2018-08-03T02:51:25.710Z,738.00
2018-08-03T02:52:26.486Z,740.00
2018-08-03T02:53:27.257Z,740.00
2018-08-03T02:54:28.037Z,741.00
2018-08-03T02:55:28.832Z,741.00
2018-08-03T02:56:29.605Z,742.00
2018-08-03T02:57:30.378Z,739.00
2018-08-03T02:58:31.152Z,739.00
2018-08-03T02:59:31.926Z,740.00
2018-08-03T03:00:32.723Z,742.00
2018-08-03T03:01:33.492Z,741.00
2018-08-03T03:02:34.267Z,739.00
2018-08-03T03:03:35.037Z,738.00
2018-08-03T03:04:35.809Z,738.00
2018-08-03T03:05:36.611Z,738.00
2018-08-03T03:06:37.387Z,737.00
2018-08-03T03:07:38.160Z,737.00
2018-08-03T03:08:38.935Z,737.00
2018-08-03T03:09:39.710Z,737.00
2018-08-03T03:10:40.507Z,737.00
2018-08-03T03:11:41.279Z,737.00
2018-08-03T03:12:42.053Z,737.00
2018-08-03T03:13:42.825Z,737.00
2018-08-03T03:14:43.603Z,738.00
2018-08-03T03:15:44.405Z,739.00
2018-08-03T03:16:45.168Z,738.00
2018-08-03T03:17:45.943Z,737.00
2018-08-03T03:18:46.715Z,737.00
2018-08-03T03:19:47.498Z,739.00
2018-08-03T03:20:47.287Z,737.00
2018-08-03T03:21:49.069Z,737.00
2018-08-03T03:22:49.839Z,737.00
2018-08-03T03:23:50.611Z,737.00
2018-08-03T03:24:51.390Z,739.00
2018-08-03T03:25:52.187Z,737.00
2018-08-03T03:26:52.960Z,737.00
2018-08-03T03:27:53.731Z,737.00
2018-08-03T03:28:54.506Z,739.00
2018-08-03T03:29:55.286Z,737.00
2018-08-03T03:30:56.083Z,737.00
2018-08-03T03:31:57.852Z,738.00
2018-08-03T03:32:57.629Z,737.00
2018-08-03T03:33:58.396Z,739.00
2018-08-03T03:34:59.201Z,738.00
2018-08-03T03:35:59.971Z,738.00
2018-08-03T03:36:59.740Z,737.00
2018-08-03T03:38:01.520Z,737.00
2018-08-03T03:39:02.286Z,737.00
2018-08-03T03:40:03.091Z,737.00
2018-08-03T03:41:03.865Z,738.00
2018-08-03T03:42:04.638Z,737.00
2018-08-03T03:43:05.411Z,739.00
2018-08-03T03:44:06.185Z,737.00
2018-08-03T03:45:06.989Z,738.00
2018-08-03T03:46:07.759Z,738.00
2018-08-03T03:47:08.540Z,740.00
2018-08-03T03:48:09.309Z,738.00
2018-08-03T03:49:10.087Z,739.00
2018-08-03T03:50:10.884Z,740.00
2018-08-03T03:51:11.660Z,739.00
2018-08-03T03:52:12.435Z,741.00
2018-08-03T03:53:13.231Z,739.00
2018-08-03T03:54:14.393Z,740.00
2018-08-03T03:55:14.605Z,738.00
2018-08-03T03:56:13.804Z,738.00
2018-08-03T04:01:11.472Z,738.00
2018-08-03T04:02:12.245Z,738.00
2018-08-03T04:03:13.015Z,738.00
2018-08-03T04:04:13.786Z,738.00
2018-08-03T04:05:14.571Z,740.00
2018-08-03T04:06:15.353Z,740.00
2018-08-03T04:07:16.123Z,738.00
2018-08-03T04:08:16.903Z,738.00
2018-08-03T04:09:17.671Z,738.00
2018-08-03T04:10:18.450Z,739.00
2018-08-03T04:11:20.244Z,738.00
2018-08-03T04:12:19.074Z,738.00
2018-08-03T04:13:19.791Z,739.00
2018-08-03T04:14:21.572Z,739.00
2018-08-03T04:15:22.343Z,739.00
2018-08-03T04:16:23.139Z,742.00
2018-08-03T04:17:23.910Z,742.00
2018-08-03T04:18:24.677Z,745.00
2018-08-03T04:19:25.449Z,745.00
2018-08-03T04:20:26.223Z,741.00
2018-08-03T04:21:27.027Z,741.00
2018-08-03T04:22:27.798Z,741.00
2018-08-03T04:23:28.572Z,739.00
2018-08-03T04:24:29.346Z,740.00
2018-08-03T04:25:30.153Z,739.00
2018-08-03T04:26:30.927Z,739.00
2018-08-03T04:27:31.701Z,739.00
2018-08-03T04:28:32.476Z,740.00
2018-08-03T04:29:33.245Z,739.00
2018-08-03T04:30:35.015Z,738.00
2018-08-03T04:31:34.814Z,739.00
2018-08-03T04:32:35.581Z,738.00
2018-08-03T04:33:36.356Z,740.00
2018-08-03T04:34:37.129Z,739.00
2018-08-03T04:35:37.901Z,739.00
2018-08-03T04:36:38.700Z,742.00
2018-08-03T04:37:39.473Z,741.00
2018-08-03T04:38:40.250Z,742.00
2018-08-03T04:39:41.020Z,742.00
2018-08-03T04:40:41.802Z,742.00
2018-08-03T04:41:42.599Z,742.00
2018-08-03T04:42:43.378Z,745.00
2018-08-03T04:43:44.149Z,742.00
2018-08-03T04:44:44.924Z,742.00
2018-08-03T04:45:45.702Z,741.00
2018-08-03T04:46:46.495Z,742.00
2018-08-03T04:47:47.280Z,740.00
2018-08-03T04:48:48.050Z,739.00
2018-08-03T04:49:48.834Z,739.00
2018-08-03T04:50:49.595Z,739.00
2018-08-03T04:51:50.500Z,740.00
2018-08-03T04:52:50.183Z,739.00
2018-08-03T04:53:51.957Z,739.00
2018-08-03T04:54:52.731Z,739.00
2018-08-03T04:55:53.502Z,739.00
2018-08-03T04:56:54.298Z,740.00
2018-08-03T04:57:55.070Z,738.00
2018-08-03T04:58:55.843Z,738.00
2018-08-03T04:59:56.617Z,738.00
2018-08-03T05:00:57.390Z,741.00
2018-08-03T05:01:58.195Z,738.00
2018-08-03T05:02:58.970Z,738.00
2018-08-03T05:03:59.739Z,739.00
2018-08-03T05:05:00.519Z,737.00
2018-08-03T05:06:01.283Z,737.00
2018-08-03T05:07:02.096Z,737.00
2018-08-03T05:08:02.857Z,735.00
2018-08-03T05:09:03.640Z,733.00
2018-08-03T05:10:04.400Z,732.00
2018-08-03T05:11:05.180Z,728.00
2018-08-03T05:12:05.979Z,727.00
2018-08-03T05:13:06.748Z,727.00
2018-08-03T05:14:07.527Z,727.00
2018-08-03T05:15:08.305Z,725.00
2018-08-03T05:16:09.094Z,724.00
2018-08-03T05:17:09.908Z,720.00
2018-08-03T05:18:10.680Z,717.00
2018-08-03T05:19:11.454Z,717.00
2018-08-03T05:20:12.229Z,715.00
2018-08-03T05:21:13.004Z,714.00
2018-08-03T05:22:13.806Z,713.00
2018-08-03T05:23:14.580Z,712.00
2018-08-03T05:24:14.380Z,717.00
2018-08-03T05:25:16.123Z,715.00
2018-08-03T05:26:16.900Z,713.00
2018-08-03T05:27:17.698Z,711.00
2018-08-03T05:28:18.483Z,710.00
2018-08-03T05:29:19.249Z,709.00
2018-08-03T05:30:20.054Z,708.00
2018-08-03T05:31:19.812Z,706.00
2018-08-03T05:32:21.602Z,705.00
2018-08-03T05:33:22.379Z,703.00
2018-08-03T05:34:23.154Z,703.00
2018-08-03T05:35:23.951Z,702.00
2018-08-03T05:36:23.732Z,698.00
2018-08-03T05:37:24.507Z,697.00
2018-08-03T05:38:26.278Z,693.00
2018-08-03T05:39:27.060Z,692.00
2018-08-03T05:40:27.832Z,690.00
2018-08-03T05:41:28.603Z,690.00
2018-08-03T05:42:29.442Z,691.00
2018-08-03T05:43:29.177Z,687.00
2018-08-03T05:44:30.960Z,685.00
2018-08-03T05:45:31.745Z,685.00
2018-08-03T05:46:31.499Z,686.00
2018-08-03T05:47:33.352Z,686.00
2018-08-03T05:48:33.083Z,682.00
2018-08-03T05:49:33.846Z,681.00
2018-08-03T05:50:40.380Z,680.00
2018-08-03T05:51:37.178Z,679.00
2018-08-03T05:52:36.956Z,680.00
2018-08-03T05:53:37.729Z,676.00
2018-08-03T05:54:38.505Z,675.00
2018-08-03T05:55:39.275Z,676.00
2018-08-03T05:56:40.047Z,675.00
2018-08-03T05:57:39.848Z,673.00
2018-08-03T05:58:41.990Z,672.00
2018-08-03T06:03:28.798Z,668.00
2018-08-03T06:04:29.569Z,666.00
2018-08-03T06:05:30.338Z,665.00
2018-08-03T06:06:31.116Z,665.00
2018-08-03T06:07:31.885Z,666.00
2018-08-03T06:08:32.687Z,665.00
2018-08-03T06:09:33.476Z,664.00
2018-08-03T06:10:33.227Z,664.00
2018-08-03T06:11:34.996Z,665.00
2018-08-03T06:12:41.771Z,663.00
2018-08-03T06:13:36.565Z,662.00
2018-08-03T06:14:37.351Z,661.00
2018-08-03T06:15:38.110Z,660.00
2018-08-03T06:16:38.885Z,661.00
2018-08-03T06:17:39.657Z,658.00
2018-08-03T06:18:40.452Z,657.00
2018-08-03T06:19:42.219Z,658.00
2018-08-03T06:20:42.134Z,657.00
2018-08-03T06:21:41.774Z,657.00
2018-08-03T06:22:43.546Z,655.00
2018-08-03T06:23:44.354Z,654.00
2018-08-03T06:24:45.129Z,654.00
2018-08-03T06:25:45.904Z,655.00
2018-08-03T06:26:46.677Z,653.00
2018-08-03T06:27:47.448Z,653.00
2018-08-03T06:28:48.251Z,654.00
2018-08-03T06:29:49.177Z,654.00
2018-08-03T06:30:48.788Z,652.00
2018-08-03T06:31:50.563Z,651.00
2018-08-03T06:32:51.337Z,651.00
2018-08-03T06:33:52.129Z,650.00
2018-08-03T06:34:52.904Z,651.00
2018-08-03T06:35:53.675Z,649.00
2018-08-03T06:36:53.458Z,649.00
2018-08-03T06:37:55.230Z,648.00
2018-08-03T06:38:56.028Z,649.00
2018-08-03T06:39:56.800Z,646.00
2018-08-03T06:40:57.580Z,646.00
2018-08-03T06:41:58.360Z,646.00
2018-08-03T06:42:59.133Z,645.00
2018-08-03T06:43:59.933Z,648.00
2018-08-03T06:45:00.711Z,645.00
2018-08-03T06:46:01.477Z,645.00
2018-08-03T06:47:02.255Z,646.00
2018-08-03T06:48:03.028Z,648.00
2018-08-03T06:49:03.826Z,649.00
2018-08-03T06:50:04.602Z,648.00
2018-08-03T06:51:05.368Z,649.00
2018-08-03T06:52:06.140Z,649.00
2018-08-03T06:53:06.912Z,651.00
2018-08-03T06:54:07.710Z,650.00
2018-08-03T06:55:08.483Z,649.00
2018-08-03T06:56:09.256Z,650.00
2018-08-03T06:57:10.031Z,650.00
2018-08-03T06:58:10.802Z,652.00
2018-08-03T06:59:11.604Z,650.00
2018-08-03T07:00:12.377Z,650.00
2018-08-03T07:01:13.156Z,650.00
2018-08-03T07:02:13.930Z,651.00
2018-08-03T07:03:14.706Z,650.00
2018-08-03T07:04:15.513Z,649.00
2018-08-03T07:05:16.281Z,648.00
2018-08-03T07:06:17.058Z,648.00
2018-08-03T07:07:17.829Z,649.00
2018-08-03T07:08:18.601Z,648.00
2018-08-03T07:09:19.405Z,648.00
2018-08-03T07:10:20.180Z,650.00
2018-08-03T07:11:20.951Z,650.00
2018-08-03T07:12:21.731Z,650.00
2018-08-03T07:13:22.502Z,651.00
2018-08-03T07:14:23.304Z,651.00
2018-08-03T07:15:24.223Z,653.00
2018-08-03T07:16:24.181Z,653.00
2018-08-03T07:17:25.095Z,651.00
2018-08-03T07:18:26.008Z,652.00
2018-08-03T07:19:27.145Z,652.00
2018-08-03T07:20:27.158Z,652.00
2018-08-03T07:21:28.025Z,653.00
2018-08-03T07:22:28.969Z,654.00
2018-08-03T07:23:29.924Z,654.00
2018-08-03T07:24:31.003Z,654.00
2018-08-03T07:25:30.951Z,655.00
2018-08-03T07:26:31.904Z,655.00
2018-08-03T07:27:32.836Z,655.00
2018-08-03T07:28:33.784Z,658.00
2018-08-03T07:29:35.731Z,660.00
2018-08-03T07:30:35.574Z,661.00
2018-08-03T07:31:36.500Z,661.00
2018-08-03T07:32:37.421Z,663.00
2018-08-03T07:33:38.378Z,664.00
2018-08-03T07:34:39.436Z,665.00
2018-08-03T07:35:39.389Z,665.00
2018-08-03T07:36:40.314Z,666.00
2018-08-03T07:37:41.198Z,668.00
2018-08-03T07:38:42.099Z,670.00
2018-08-03T07:39:43.237Z,668.00
2018-08-03T07:40:43.165Z,670.00
2018-08-03T07:41:44.099Z,670.00
2018-08-03T07:42:45.031Z,674.00
2018-08-03T07:43:45.972Z,672.00
2018-08-03T07:44:46.695Z,673.00
2018-08-03T07:45:48.465Z,675.00
2018-08-03T07:46:49.245Z,673.00
2018-08-03T07:47:50.264Z,673.00
2018-08-03T07:48:50.167Z,674.00
2018-08-03T07:49:51.257Z,676.00
2018-08-03T07:50:51.211Z,676.00
2018-08-03T07:51:52.139Z,678.00
2018-08-03T07:52:53.076Z,679.00
2018-08-03T07:53:53.976Z,679.00
2018-08-03T07:54:55.041Z,682.00
2018-08-03T07:55:54.920Z,680.00
2018-08-03T07:56:55.873Z,681.00
2018-08-03T07:57:56.803Z,684.00
2018-08-03T07:58:57.726Z,686.00
2018-08-03T07:59:58.762Z,688.00
2018-08-03T08:00:58.706Z,689.00
2018-08-03T08:01:59.662Z,689.00
2018-08-03T08:03:00.587Z,689.00
2018-08-03T08:04:01.536Z,690.00
2018-08-03T08:05:02.667Z,693.00
2018-08-03T08:06:02.569Z,693.00
2018-08-03T08:07:03.519Z,692.00
2018-08-03T08:08:04.412Z,691.00
2018-08-03T08:09:05.296Z,692.00
2018-08-03T08:10:06.435Z,693.00
2018-08-03T08:11:06.369Z,693.00
2018-08-03T08:12:07.244Z,692.00
2018-08-03T08:13:08.141Z,693.00
2018-08-03T08:14:09.075Z,693.00
2018-08-03T08:15:10.240Z,693.00
2018-08-03T08:16:10.093Z,694.00
2018-08-03T08:17:11.003Z,692.00
2018-08-03T08:18:11.922Z,692.00
2018-08-03T08:19:12.861Z,696.00
2018-08-03T08:20:14.933Z,693.00
2018-08-03T08:21:13.866Z,696.00
2018-08-03T08:22:14.760Z,693.00
2018-08-03T08:23:16.668Z,693.00
2018-08-03T08:24:16.640Z,696.00
2018-08-03T08:25:17.638Z,693.00
2018-08-03T08:26:18.522Z,693.00
2018-08-03T08:27:19.429Z,693.00
2018-08-03T08:28:20.330Z,694.00
2018-08-03T08:29:21.285Z,698.00
2018-08-03T08:30:22.317Z,697.00
2018-08-03T08:31:22.302Z,697.00
2018-08-03T08:32:23.145Z,694.00
2018-08-03T08:33:23.838Z,694.00
2018-08-03T08:34:25.770Z,698.00
2018-08-03T08:35:25.505Z,698.00
2018-08-03T08:36:27.273Z,699.00
2018-08-03T08:37:28.052Z,702.00
2018-08-03T08:38:28.826Z,702.00
2018-08-03T08:39:28.599Z,703.00
2018-08-03T08:40:30.399Z,704.00
2018-08-03T08:41:31.177Z,704.00
2018-08-03T08:42:31.958Z,704.00
2018-08-03T08:43:32.848Z,704.00
2018-08-03T08:44:32.503Z,704.00
2018-08-03T08:45:34.299Z,705.00
2018-08-03T08:46:35.077Z,708.00
2018-08-03T08:47:35.848Z,705.00
2018-08-03T08:48:36.671Z,708.00
2018-08-03T08:49:38.445Z,705.00
2018-08-03T08:50:38.240Z,706.00
2018-08-03T08:51:39.014Z,704.00
2018-08-03T08:52:39.807Z,704.00
2018-08-03T08:53:40.561Z,704.00
2018-08-03T08:54:41.366Z,703.00
2018-08-03T08:55:42.134Z,703.00
2018-08-03T08:56:42.905Z,704.00
2018-08-03T08:57:43.682Z,704.00
2018-08-03T08:58:44.466Z,704.00
2018-08-03T08:59:45.323Z,704.00
2018-08-03T09:00:45.041Z,705.00
2018-08-03T09:01:47.172Z,704.00
2018-08-03T09:02:49.936Z,705.00
2018-08-03T09:03:59.721Z,705.00
2018-08-03T09:05:00.496Z,705.00
2018-08-03T09:06:01.291Z,706.00
2018-08-03T09:07:02.065Z,705.00
2018-08-03T09:08:02.835Z,706.00
2018-08-03T09:09:03.606Z,706.00
2018-08-03T09:10:04.386Z,706.00
2018-08-03T09:11:05.190Z,708.00
2018-08-03T09:12:05.954Z,709.00
2018-08-03T09:13:06.726Z,713.00
2018-08-03T09:14:06.494Z,713.00
2018-08-03T09:15:08.269Z,715.00
2018-08-03T09:16:09.066Z,713.00
2018-08-03T09:17:09.841Z,709.00
2018-08-03T09:18:10.619Z,708.00
2018-08-03T09:19:11.393Z,708.00
2018-08-03T09:20:12.167Z,706.00
2018-08-03T09:21:12.962Z,705.00
2018-08-03T09:22:13.839Z,704.00
2018-08-03T09:23:13.520Z,703.00
2018-08-03T09:24:15.296Z,703.00
2018-08-03T09:25:16.069Z,703.00
2018-08-03T09:26:16.869Z,704.00
2018-08-03T09:27:17.644Z,706.00
2018-08-03T09:28:18.454Z,705.00
2018-08-03T09:29:18.197Z,704.00
2018-08-03T09:30:19.971Z,703.00
2018-08-03T09:31:20.768Z,702.00
2018-08-03T09:32:21.544Z,700.00
2018-08-03T09:33:22.312Z,700.00
2018-08-03T09:34:23.082Z,699.00
2018-08-03T09:35:23.855Z,699.00
2018-08-03T09:36:24.659Z,699.00
2018-08-03T09:37:25.437Z,699.00
2018-08-03T09:38:26.196Z,700.00
2018-08-03T09:39:26.986Z,702.00
2018-08-03T09:40:27.744Z,702.00
2018-08-03T09:41:28.544Z,703.00
2018-08-03T09:42:29.318Z,700.00
2018-08-03T09:43:30.091Z,699.00
2018-08-03T09:44:30.875Z,698.00
2018-08-03T09:45:31.639Z,699.00
2018-08-03T09:46:32.442Z,694.00
2018-08-03T09:47:33.216Z,697.00
2018-08-03T09:48:33.990Z,693.00
2018-08-03T09:49:34.764Z,693.00
2018-08-03T09:50:35.553Z,692.00
2018-08-03T09:51:36.346Z,693.00
2018-08-03T09:52:37.119Z,692.00
2018-08-03T09:53:37.895Z,692.00
2018-08-03T09:54:38.665Z,692.00
2018-08-03T09:55:39.448Z,692.00
2018-08-03T09:56:40.277Z,692.00
2018-08-03T09:57:41.048Z,692.00
2018-08-03T09:58:41.822Z,691.00
2018-08-03T09:59:42.590Z,691.00
2018-08-03T10:00:43.371Z,691.00
2018-08-03T10:01:44.193Z,691.00
2018-08-03T10:02:43.942Z,692.00
2018-08-03T10:03:45.713Z,692.00
2018-08-03T10:04:46.485Z,691.00
2018-08-03T10:05:47.262Z,692.00
2018-08-03T10:06:48.142Z,692.00
2018-08-03T10:07:47.843Z,690.00
2018-08-03T10:08:49.614Z,690.00
2018-08-03T10:09:50.384Z,691.00
2018-08-03T10:10:51.161Z,689.00
2018-08-03T10:11:51.955Z,689.00
2018-08-03T10:12:52.798Z,689.00
2018-08-03T10:13:52.499Z,688.00
2018-08-03T10:14:54.272Z,690.00
2018-08-03T10:15:55.046Z,687.00
2018-08-03T10:16:55.844Z,687.00
2018-08-03T10:17:56.616Z,687.00
2018-08-03T10:18:57.391Z,689.00
2018-08-03T10:19:58.161Z,691.00
2018-08-03T10:20:58.933Z,689.00
2018-08-03T10:21:59.736Z,689.00
2018-08-03T10:23:00.508Z,692.00
2018-08-03T10:24:01.285Z,696.00
2018-08-03T10:25:02.052Z,693.00
2018-08-03T10:26:02.833Z,692.00
2018-08-03T10:27:03.623Z,691.00
2018-08-03T10:28:04.408Z,690.00
2018-08-03T10:29:05.170Z,691.00
2018-08-03T10:30:05.942Z,688.00
2018-08-03T10:31:06.716Z,687.00
2018-08-03T10:32:07.521Z,687.00
2018-08-03T10:33:08.299Z,689.00
2018-08-03T10:34:09.064Z,687.00
2018-08-03T10:35:09.892Z,686.00
2018-08-03T10:36:09.620Z,685.00
2018-08-03T10:37:11.417Z,687.00
2018-08-03T10:38:12.194Z,687.00
2018-08-03T10:39:12.966Z,687.00
2018-08-03T10:40:13.744Z,686.00
2018-08-03T10:41:14.520Z,685.00
2018-08-03T10:42:15.318Z,687.00
2018-08-03T10:43:16.235Z,685.00
2018-08-03T10:44:15.865Z,687.00
2018-08-03T10:45:17.647Z,685.00
2018-08-03T10:46:18.415Z,685.00
2018-08-03T10:47:19.220Z,685.00
2018-08-03T10:48:19.989Z,686.00
2018-08-03T10:49:20.772Z,686.00
2018-08-03T10:50:21.543Z,686.00
2018-08-03T10:51:22.373Z,686.00
2018-08-03T10:52:22.126Z,686.00
2018-08-03T10:53:23.896Z,685.00
2018-08-03T10:54:24.671Z,685.00
2018-08-03T10:55:25.443Z,689.00
2018-08-03T10:56:26.219Z,688.00
2018-08-03T10:57:27.012Z,686.00
2018-08-03T10:58:29.166Z,685.00
2018-08-03T11:03:32.890Z,687.00
2018-08-03T11:04:33.665Z,685.00
2018-08-03T11:05:34.432Z,685.00
2018-08-03T11:06:35.202Z,685.00
2018-08-03T11:07:35.975Z,687.00
2018-08-03T11:08:36.777Z,686.00
2018-08-03T11:09:37.543Z,686.00
2018-08-03T11:10:38.325Z,686.00
2018-08-03T11:11:39.101Z,687.00
2018-08-03T11:12:39.873Z,686.00
2018-08-03T11:13:40.699Z,685.00
2018-08-03T11:14:40.441Z,686.00
2018-08-03T11:15:42.212Z,686.00
2018-08-03T11:16:42.988Z,687.00
2018-08-03T11:17:43.763Z,685.00
2018-08-03T11:18:44.567Z,685.00
2018-08-03T11:19:45.336Z,686.00
2018-08-03T11:20:46.103Z,687.00
2018-08-03T11:21:46.874Z,687.00
2018-08-03T11:22:47.647Z,685.00
2018-08-03T11:23:48.447Z,685.00
2018-08-03T11:24:49.219Z,684.00
2018-08-03T11:25:49.997Z,687.00
2018-08-03T11:26:50.771Z,685.00
2018-08-03T11:27:50.554Z,686.00
2018-08-03T11:28:52.351Z,685.00
2018-08-03T11:29:53.125Z,687.00
2018-08-03T11:30:53.896Z,685.00
2018-08-03T11:31:54.670Z,685.00
2018-08-03T11:32:55.440Z,685.00
2018-08-03T11:33:56.246Z,687.00
2018-08-03T11:34:57.022Z,688.00
2018-08-03T11:35:57.802Z,685.00
2018-08-03T11:36:58.576Z,688.00
2018-08-03T11:37:59.363Z,688.00
2018-08-03T11:39:00.156Z,687.00
2018-08-03T11:40:00.944Z,687.00
2018-08-03T11:41:01.703Z,687.00
2018-08-03T11:42:02.480Z,687.00
2018-08-03T11:43:03.270Z,686.00
2018-08-03T11:44:03.052Z,687.00
2018-08-03T11:45:04.825Z,686.00
2018-08-03T11:46:05.604Z,686.00
2018-08-03T11:47:06.374Z,685.00
2018-08-03T11:48:07.150Z,685.00
2018-08-03T11:49:07.948Z,686.00
2018-08-03T11:50:08.722Z,684.00
2018-08-03T11:51:09.493Z,689.00
2018-08-03T11:52:10.271Z,687.00
2018-08-03T11:53:10.051Z,688.00
2018-08-03T11:54:11.847Z,687.00
2018-08-03T11:55:12.621Z,686.00
2018-08-03T11:56:13.396Z,687.00
2018-08-03T11:57:14.171Z,686.00
2018-08-03T11:58:14.946Z,687.00
2018-08-03T11:59:15.751Z,685.00
2018-08-03T12:00:16.525Z,685.00
2018-08-03T12:01:17.303Z,685.00
2018-08-03T12:02:18.074Z,688.00
2018-08-03T12:03:18.846Z,687.00
2018-08-03T12:04:19.648Z,687.00
2018-08-03T12:05:20.421Z,686.00
2018-08-03T12:06:21.237Z,685.00
2018-08-03T12:07:20.970Z,687.00
2018-08-03T12:08:22.747Z,685.00
2018-08-03T12:09:23.554Z,685.00
2018-08-03T12:10:24.324Z,686.00
2018-08-03T12:11:25.099Z,687.00
2018-08-03T12:12:25.921Z,687.00
2018-08-03T12:13:25.653Z,685.00
2018-08-03T12:14:27.446Z,685.00
2018-08-03T12:15:28.222Z,684.00
2018-08-03T12:16:28.996Z,686.00
2018-08-03T12:17:29.776Z,684.00
2018-08-03T12:18:30.546Z,684.00
2018-08-03T12:19:31.351Z,682.00
2018-08-03T12:20:32.124Z,685.00
2018-08-03T12:21:32.900Z,684.00
2018-08-03T12:22:33.670Z,685.00
2018-08-03T12:23:34.513Z,684.00
2018-08-03T12:24:34.248Z,684.00
2018-08-03T12:25:36.021Z,686.00
2018-08-03T12:26:36.799Z,685.00
2018-08-03T12:27:37.570Z,684.00
2018-08-03T12:28:38.351Z,684.00
2018-08-03T12:29:39.147Z,682.00
2018-08-03T12:30:39.920Z,685.00
2018-08-03T12:31:40.779Z,684.00
2018-08-03T12:32:40.467Z,684.00
2018-08-03T12:33:42.239Z,684.00
2018-08-03T12:34:43.040Z,684.00
2018-08-03T12:35:43.812Z,685.00
2018-08-03T12:36:44.590Z,685.00
2018-08-03T12:37:45.361Z,686.00
2018-08-03T12:38:46.222Z,686.00
2018-08-03T12:39:45.955Z,684.00
2018-08-03T12:40:47.737Z,685.00
2018-08-03T12:41:48.507Z,684.00
2018-08-03T12:42:49.272Z,682.00
2018-08-03T12:43:50.044Z,682.00
2018-08-03T12:44:50.850Z,682.00
2018-08-03T12:45:51.636Z,684.00
2018-08-03T12:46:51.395Z,685.00
2018-08-03T12:47:53.166Z,685.00
2018-08-03T12:48:53.941Z,685.00
2018-08-03T12:49:54.740Z,685.00
2018-08-03T12:50:55.522Z,684.00
2018-08-03T12:51:56.294Z,682.00
2018-08-03T12:52:57.094Z,685.00
2018-08-03T12:53:57.841Z,685.00
2018-08-03T12:54:58.646Z,682.00